Hunters Hill, Australia
Current Conditions -  °F | °C
As of 1:00 AM on Saturday 29 Nov 2014 (Local Time) from YMAY Reporting Station
Clear Clear  
Wind Chill: 18°   Ceiling: Unl
Heat Index: 18°   Visibility: 6mi
Dew Point: 11°   Wind: 0mph
Humidity: 64%   Direction: NA
Pressure: 29.97"   Gusts: NA
Location:  36.22°S, 147.53°E
Report Text: YMAY 281400Z AUTO 00000KT 9999 // NCD 18/11 Q1015
Loading
Personal Weather Stations






























Interactive Weather Map New forecast layout! Learn more

10-Day Weather Forecast

Advertisements
Track Severe Weather on mobile